AirNav   Pilot Hours Calculator
 
 1515 users online  

6MI4 Guardian Industries Heliport
Novi, Michigan, USA

GOING TO NOVI?


FAA INFORMATION EFFECTIVE 02 JANUARY 2020

Location

FAA Identifier: 6MI4
Lat/Long: 42-27-00.1250N 083-28-11.7670W
42-27.002083N 083-28.196117W
42.4500347,-83.4699353
(estimated)
Elevation: 832 ft. / 254 m (estimated)
Variation: 06W (1985)
Time zone: UTC -5 (UTC -4 during Daylight Saving Time)
Zip code: 48375

Heliport Operations

Heliport use: Private use. Permission required prior to landing
Activation date: 10/1981
Control tower: no
ARTCC: CLEVELAND CENTER
FSS: LANSING FLIGHT SERVICE STATION
Attendance: DAYLIGHT HOURS
Wind indicator: yes
Segmented circle: no

Heliport Communications

WX ASOS at YIP (13 nm S): 132.35 (734-961-6843)
WX ASOS at PTK (13 nm N): 125.025 (248-886-8551)
WX AWOS-3 at VLL (14 nm NE): 119.475 (248-288-4649)
WX ASOS at DTW (15 nm S): 133.675 (734-955-5015)
WX ASOS at ARB (18 nm SW): 134.55 (734-668-7173)

Nearby radio navigation aids

VOR radial/distance  VOR name  Freq  Var
SVMr069/6.0SALEM VORTAC114.3003W
DXOr348/14.9DETROIT VOR/DME113.4006W
CRLr002/24.1CARLETON VOR/DME115.7003W
YQGr299/30.9WINDSOR VOR/DME113.8006W
FNTr164/33.3FLINT VORTAC116.9006W

 
NDB name  Hdg/Dist  Freq  Var  ID
GROSSE ILE333/25.241907WRYS .-. -.-- ...
TECUMSEH043/31.123906WTCU - -.-. ..-

Heliport Services

Runway Information

Helipad H1

Dimensions: 20 x 20 ft. / 6 x 6 m
Surface: concrete
Latitude: 42-27.002083N
Longitude: 083-28.196117W
Elevation: 832.0 ft.
Traffic pattern: leftleft

Heliport Ownership and Management from official FAA records

Ownership: Privately-owned
Owner: BILL HADDAS
43043 W. NINE MILE RD.
NORTHVILLE, MI 48167
Phone 734-941-5822
Manager: BILL HADDAS
P.O. BOX 42384
DETROIT, MI 48242
Phone 313-941-5822

Additional Remarks

FOR CD CTC DETROIT APCH AT 800-499-8181.

Instrument Procedures

There are no published instrument procedures at 6MI4.

Some nearby airports with instrument procedures:

1D2 - Canton-Plymouth-Mettetal Airport (6 nm S)
Y47 - Oakland Southwest Airport (8 nm NW)
KYIP - Willow Run Airport (13 nm S)
KPTK - Oakland County International Airport (13 nm N)
KVLL - Oakland/Troy Airport (14 nm NE)
KDTW - Detroit Metropolitan Wayne County Airport (15 nm S)
KARB - Ann Arbor Municipal Airport (18 nm SW)
 
Loc | Ops | Rwys | IFR | FBO | Links
Com | Nav | Svcs | Stats | Notes
Area around 6MI4 (Guardian Industries Heliport)
 
Road maps at: MapQuest Bing Google
 
Aerial photo
No photo
 
Sectional chart

 
Airport distance calculator
Flying to Guardian Industries Heliport? Find the distance to fly.

From to 6MI4

Sunrise and sunset
Times for 23-Jan-2020
 Local
(UTC-5)
 Zulu
(UTC)
Morning civil twilight07:2612:26
Sunrise07:5712:57
Sunset17:3522:35
Evening civil twilight18:0523:05

Current date and time
Zulu (UTC)  23-Jan-2020 23:01:40
Local (UTC-5)  23-Jan-2020 18:01:40
 
METAR
KPTK 
13nm N 
232253Z 12005KT 10SM OVC070 01/M04 A3015 RMK AO2 SLP220 T00111044
KYIP 
13nm S 
232253Z 10004KT 10SM OVC080 03/M03 A3017 RMK AO2 SLP221 T00281033
KVLL 
14nm NE 
232255Z AUTO 11003KT 10SM OVC080 02/M03 A3019 RMK AO2 T00201034
KDTW 
14nm SE 
232253Z 11004KT 9SM OVC080 02/M04 A3018 RMK AO2 SLP225 T00171039
KARB 
18nm SW 
734-668-7173
232253Z 11005KT 9SM OVC090 02/M05 A3016 RMK AO2 SLP222 T00171050
KDET 
20nm E 
232253Z 12004KT 10SM OVC085 01/M03 A3019 RMK AO2 SLP229 T00111033
KOZW 
24nm NW 
232255Z AUTO 13006KT 10SM BKN070 OVC095 02/M05 A3014 RMK AO2 T00201050
CYQG 
25nm SE 
232200Z AUTO 12005KT 9SM BKN100 BKN120 OVC170 02/M03 A3018 RMK SLP231
KONZ 
25nm SE 
232255Z AUTO 09003KT 10SM OVC080 01/M03 A3017 RMK AO2 T00121034
TAF
KPTK 
13nm N 
231725Z 2318/2418 16007KT P6SM OVC120 FM240000 12005KT P6SM OVC080 FM240700 09005KT P6SM OVC050 TEMPO 2408/2412 P6SM -RASN OVC025 FM241500 08010KT 5SM -RA BR OVC025
KYIP 
13nm S 
231120Z 2312/2412 14005KT P6SM OVC180 FM231800 16007KT P6SM OVC120 FM240000 12005KT P6SM OVC080 FM240800 09005KT P6SM VCSH OVC050
KDTW 
14nm SE 
232139Z 2322/2424 15007KT P6SM OVC100 FM240000 12005KT P6SM OVC080 FM240700 09005KT P6SM OVC050 TEMPO 2408/2412 P6SM -SHRA OVC025 FM241400 08010KT 5SM -RA BR OVC025 FM242100 09008KT 2SM -RA BR OVC015
NOTAMs
Click for the latest NOTAMs
NOTAMs are issued by the DoD/FAA and will open in a separate window not controlled by AirNav.

 

 
 

Would you like to see your business listed on this page?

 If your business provides an interesting product or service to pilots, flight crews, aircraft, or users of the Guardian Industries Heliport, you should consider listing it here.  To start the listing process, click on the button below
 
Add a business
 

Other Pages about Guardian Industries Heliport

Update a link
 
Copyright © AirNav, LLC. All rights reserved. Privacy Policy  Contact